Spearwood Jandakot Aerodrome, Australia
Current Conditions -  °F | °C
As of 3:00 PM on Saturday 25 Oct 2014 (Local Time) from YPJT Reporting Station
Overcast Overcast  
Wind Chill: 70°   Ceiling: 3000
Heat Index: 70°   Visibility: 6mi
Dew Point: 55°   Wind: 17mph
Humidity: 60%   Direction: 270°W
Pressure: 30.06"   Gusts: NA
Location:  32.08°S, 115.87°E
Report Text: YPJT 250700Z AUTO 27015KT 9999 // BKN030 OVC039 21/13 Q1018
Loading
Personal Weather Stations






























Interactive Weather Map
Tropical Storm Tracking
New forecast layout! Learn more

10-Day Weather Forecast

Advertisements
Track Severe Weather on mobile